Home   Weather   USA   Austin   Past weeks
Flag for USA

Past Weather in Austin, Texas, USA — February 2018

Currently: 75 °F. Mild. (Weather station: Camp Mabry / Austin City, USA). See more current weather

February 2018 Weather in Austin — Graph

°F

High & Low Weather Summary for February 2018

 TemperatureHumidityPressure
High81 °F (Feb 28, 1:51 pm)100% (Feb 4, 5:51 am)30.50 "Hg (Feb 4, 5:51 am)
Low31 °F (Feb 11, 8:51 am)25% (Feb 1, 3:51 pm)29.68 "Hg (Feb 28, 5:51 pm)
Average55 °F79%30.11 "Hg
* Reported Feb 1 12:51 am — Feb 28 11:51 pm, Austin. Weather by CustomWeather, © 2023

Note: Actual official high and low records may vary slightly from our data, if they occured in-between our weather recording intervals... More about our weather records

Austin Weather History for February 1, 2018

Scroll right to see more
 ConditionsComfort  
Time TempWeatherWind HumidityBarometerVisibility
12:51 am
Thu, Feb 1
58 °FClear.9 mph78%29.94 "HgN/A
1:51 am57 °FClear.6 mph81%29.94 "HgN/A
2:51 am58 °FClear.5 mph78%29.94 "HgN/A
3:51 am58 °FClear.No wind81%29.93 "HgN/A
4:51 am58 °FClear.6 mph84%29.93 "HgN/A
5:51 am57 °FClear.3 mph87%29.93 "HgN/A
6:51 am55 °FClear.3 mph90%29.94 "HgN/A
7:51 am56 °FSunny.No wind90%29.95 "HgN/A
8:51 am58 °FSunny.3 mph87%29.98 "Hg10 mi
9:51 am62 °FSunny.3 mph78%30.01 "Hg10 mi
10:51 am69 °FSunny.6 mph59%30.02 "Hg10 mi
11:51 am69 °FSunny.7 mph55%30.03 "Hg10 mi
12:51 pm70 °FSunny.6 mph51%30.01 "HgN/A
1:51 pm72 °FSunny.5 mph43%30.01 "HgN/A
2:51 pm72 °FSunny.No wind38%30.01 "Hg10 mi
3:51 pm72 °FSunny.9 mph25%30.03 "HgN/A
4:51 pm68 °FSunny.9 mph28%30.08 "HgN/A
5:51 pm65 °FSunny.9 mph33%30.12 "HgN/A
6:51 pm63 °FClear.7 mph37%30.16 "Hg10 mi
7:51 pm60 °FClear.6 mph42%30.19 "Hg10 mi
8:51 pm59 °FClear.7 mph44%30.23 "Hg10 mi
9:51 pm57 °FClear.9 mph44%30.25 "Hg10 mi
10:51 pm55 °FClear.13 mph40%30.28 "Hg10 mi
11:51 pm53 °FClear.9 mph39%30.31 "Hg10 mi
Weather by CustomWeather, © 2023

See weather overview